Terminal Aerodrome Forecast
Issued by NWS

Home | Current Version | Previous Version | Text Only | Print | Product List | Glossary On
Versions: 1 2 3 4 5 6 7 8 9 10 11 12
000
FTUS46 KMTR 281731
TAFSJC
TAF
KSJC 281731Z 2818/2918 31005KT P6SM FEW100 SCT150 BKN200
     FM282200 30012KT P6SM BKN200
     FM290200 30006KT P6SM BKN200
     FM290900 31006KT P6SM BKN015 BKN200
     FM291500 VRB03KT P6SM FEW015 SCT020 BKN200=

USA.gov is the U.S. government's official web portal to all federal, state and local government web resources and services.